Terminal Aerodrome Forecast
Issued by NWS

Home | Current Version | Previous Version | Graphics & Text | Print | Product List | Glossary On
Versions: 1 2 3 4 5 6 7 8 9 10 11 12 13 14 15 16 17 18 19 20 21 22 23 24 25 26 27 28 29 30 31 32
000
FTUS43 KLOT 301949 AAA
TAFORD
TAF AMD
KORD 301949Z 3020/0124 07012G19KT 4SM -RA BR OVC010
     FM302300 07012G18KT 4SM -RA BR OVC008
     FM010200 05012KT 2SM -RADZ BR OVC005
     FM010600 04012KT 2SM -DZ BR OVC003
     FM011100 03010KT 4SM BR VCSH OVC007
     FM012000 01010G16KT P6SM VCSH BKN010 OVC018=

USA.gov is the U.S. government's official web portal to all federal, state and local government web resources and services.